Terminal Aerodrome Forecast
Issued by NWS

Home | Current Version | Previous Version | Text Only | Print | Product List | Glossary On
Versions: 1 2 3 4 5 6 7 8 9 10 11 12 13 14 15 16 17 18 19 20
000
FTUS43 KDTX 270538
TAFMBS
TAF
KMBS 270538Z 2706/2806 20010KT P6SM SCT070 BKN150
     FM271000 22007KT P6SM BKN015
     FM271600 24013G20KT P6SM BKN040 PROB30 2720/2723 5SM SHRA
      OVC040=

USA.gov is the U.S. government's official web portal to all federal, state and local government web resources and services.